CST,Max TemperatureF,Mean TemperatureF,Min TemperatureF,Max Dew PointF,MeanDew PointF,Min DewpointF,Max Humidity, Mean Humidity, Min Humidity, Max Sea Level PressureIn, Mean Sea Level PressureIn, Min Sea Level PressureIn, Max VisibilityMiles, Mean VisibilityMiles, Min VisibilityMiles, Max Wind SpeedMPH, Mean Wind SpeedMPH, Max Gust SpeedMPH,PrecipitationIn, CloudCover, Events, WindDirDegrees
2011-11-1,84,71,58,62,58,55,93,68,43,30.13,30.07,30.02,10,10,8,15,5,21,0.00,1,,123
2011-11-2,88,75,62,71,66,58,93,72,50,30.04,29.99,29.94,10,10,10,26,11,33,0.00,1,,146
2011-11-3,74,64,54,71,49,32,100,65,29,30.33,30.20,30.05,10,9,2,25,11,36,0.04,4,Rain,345
2011-11-4,75,63,50,52,43,32,72,55,37,30.24,30.16,30.09,10,10,10,14,7,20,0.00,0,,11
2011-11-5,82,70,58,68,64,53,93,76,58,30.07,29.93,29.86,10,10,10,24,13,30,0.00,6,,129
2011-11-6,82,79,76,72,70,68,82,76,69,30.00,29.94,29.88,10,10,10,24,16,31,T,8,,141
2011-11-7,88,82,76,70,68,66,82,66,50,29.99,29.95,29.88,10,10,10,28,17,36,0.00,3,,147
2011-11-8,88,80,72,71,69,67,87,70,53,30.00,29.89,29.83,10,10,10,26,12,32,0.00,1,,158
2011-11-9,74,64,54,72,52,40,93,67,40,30.32,30.16,30.00,10,10,7,20,12,26,0.10,7,Rain,349
2011-11-10,68,57,45,49,43,37,93,64,34,30.44,30.37,30.34,10,10,6,21,9,31,0.39,3,Rain,343
2011-11-11,74,59,43,54,45,39,89,62,35,30.33,30.23,30.11,10,10,10,15,5,28,0.00,0,,133
2011-11-12,81,70,58,67,63,55,90,72,54,30.09,30.00,29.96,10,10,10,24,10,30,T,5,Rain,165
2011-11-13,86,76,65,71,68,64,100,78,55,29.97,29.93,29.86,10,9,2,26,12,33,0.00,3,,163
2011-11-14,86,79,72,72,70,68,93,76,59,29.89,29.80,29.74,10,10,7,35,17,43,0.00,4,,159
2011-11-15,88,74,60,72,64,49,93,61,28,29.85,29.77,29.69,10,10,9,22,9,25,0.01,3,Rain,194
2011-11-16,91,75,59,73,63,52,100,64,27,30.07,29.89,29.83,10,3,0,12,3,16,0.00,2,Fog,258
2011-11-17,74,66,57,66,60,52,100,81,61,30.28,30.19,30.07,10,9,1,20,10,28,T,4,Rain,360
2011-11-18,84,70,55,67,61,53,93,70,47,30.19,30.07,29.99,10,10,10,21,9,25,0.00,1,,141
2011-11-19,88,81,73,73,71,67,94,75,55,29.98,29.94,29.88,10,10,9,29,16,35,T,3,Rain,168
2011-11-20,87,81,74,74,72,69,94,76,57,30.06,30.01,29.95,10,10,9,29,15,35,0.00,4,,155
2011-11-21,85,81,76,75,73,72,94,82,69,30.05,29.98,29.90,10,10,8,29,17,36,0.01,6,Rain,151
2011-11-22,89,78,67,74,71,62,94,72,50,30.14,29.95,29.86,10,10,8,28,12,33,0.00,3,,192
2011-11-23,76,66,56,63,58,54,93,74,54,30.27,30.21,30.14,10,10,7,15,8,23,0.00,1,,350
2011-11-24,81,68,54,62,56,55,100,73,45,30.26,30.19,30.13,10,8,2,14,4,18,0.00,2,,31
2011-11-25,83,72,60,68,64,57,90,74,58,30.11,29.97,29.85,10,10,10,24,12,29,0.00,2,,140
2011-11-26,87,75,62,70,64,40,100,71,42,30.25,29.94,29.83,10,8,0,31,10,43,T,4,Fog-Rain,268
2011-11-27,66,56,45,36,22,7,46,29,11,30.40,30.32,30.26,10,10,10,28,16,39,T,2,,321
2011-11-28,73,54,34,41,23,13,68,39,10,30.31,30.20,30.10,10,10,10,13,5,16,0.00,0,,237
2011-11-29,83,65,47,54,41,21,86,48,10,30.17,30.11,30.06,10,10,10,13,5,17,0.00,0,,186
2011-11-30,78,66,53,57,55,52,93,70,47,30.22,30.14,30.08,10,10,10,16,6,20,0.00,1,,23